sensor_id;sensor_type;location;lat;lon;timestamp;P1;durP1;ratioP1;P2;durP2;ratioP2
13102;SDS011;52970;46.752;17.108;2022-11-25T00:00:47;13.53;;;10.77;;
13102;SDS011;52970;46.752;17.108;2022-11-25T00:03:12;13.40;;;11.93;;
13102;SDS011;52970;46.752;17.108;2022-11-25T00:05:38;12.13;;;10.80;;
13102;SDS011;52970;46.752;17.108;2022-11-25T00:08:03;12.40;;;11.20;;
13102;SDS011;52970;46.752;17.108;2022-11-25T00:10:28;12.80;;;11.43;;
13102;SDS011;52970;46.752;17.108;2022-11-25T00:12:54;12.23;;;10.87;;
13102;SDS011;52970;46.752;17.108;2022-11-25T00:15:19;13.50;;;10.87;;
13102;SDS011;52970;46.752;17.108;2022-11-25T00:17:44;14.87;;;12.23;;
13102;SDS011;52970;46.752;17.108;2022-11-25T00:20:09;11.47;;;10.27;;
13102;SDS011;52970;46.752;17.108;2022-11-25T00:22:34;17.03;;;12.27;;
13102;SDS011;52970;46.752;17.108;2022-11-25T00:25:00;12.07;;;10.77;;
13102;SDS011;52970;46.752;17.108;2022-11-25T00:27:25;11.83;;;10.63;;
13102;SDS011;52970;46.752;17.108;2022-11-25T00:29:50;14.13;;;11.30;;
13102;SDS011;52970;46.752;17.108;2022-11-25T00:32:15;14.67;;;11.30;;
13102;SDS011;52970;46.752;17.108;2022-11-25T00:34:40;13.57;;;12.17;;
13102;SDS011;52970;46.752;17.108;2022-11-25T00:37:06;13.63;;;11.60;;
13102;SDS011;52970;46.752;17.108;2022-11-25T00:39:31;12.63;;;11.33;;
13102;SDS011;52970;46.752;17.108;2022-11-25T00:41:56;13.73;;;11.10;;
13102;SDS011;52970;46.752;17.108;2022-11-25T00:44:40;12.27;;;10.93;;
13102;SDS011;52970;46.752;17.108;2022-11-25T00:47:12;12.90;;;11.30;;
13102;SDS011;52970;46.752;17.108;2022-11-25T00:49:38;13.70;;;12.20;;
13102;SDS011;52970;46.752;17.108;2022-11-25T00:52:04;12.83;;;11.47;;
13102;SDS011;52970;46.752;17.108;2022-11-25T00:54:29;11.40;;;10.17;;
13102;SDS011;52970;46.752;17.108;2022-11-25T00:56:54;13.50;;;12.03;;
13102;SDS011;52970;46.752;17.108;2022-11-25T00:59:20;13.27;;;11.47;;
13102;SDS011;52970;46.752;17.108;2022-11-25T01:01:45;12.17;;;10.87;;
13102;SDS011;52970;46.752;17.108;2022-11-25T01:04:11;13.97;;;11.57;;
13102;SDS011;52970;46.752;17.108;2022-11-25T01:06:36;12.10;;;10.83;;
13102;SDS011;52970;46.752;17.108;2022-11-25T01:09:02;11.20;;;10.10;;
13102;SDS011;52970;46.752;17.108;2022-11-25T01:11:27;15.03;;;11.97;;
13102;SDS011;52970;46.752;17.108;2022-11-25T01:13:53;11.90;;;10.63;;
13102;SDS011;52970;46.752;17.108;2022-11-25T01:16:20;14.97;;;11.70;;
13102;SDS011;52970;46.752;17.108;2022-11-25T01:18:46;17.03;;;11.87;;
13102;SDS011;52970;46.752;17.108;2022-11-25T01:21:13;14.50;;;11.80;;
13102;SDS011;52970;46.752;17.108;2022-11-25T01:23:39;12.40;;;10.97;;
13102;SDS011;52970;46.752;17.108;2022-11-25T01:26:05;14.23;;;11.47;;
13102;SDS011;52970;46.752;17.108;2022-11-25T01:28:31;15.23;;;11.50;;
13102;SDS011;52970;46.752;17.108;2022-11-25T01:31:03;14.00;;;11.50;;
13102;SDS011;52970;46.752;17.108;2022-11-25T01:33:30;13.00;;;11.10;;
13102;SDS011;52970;46.752;17.108;2022-11-25T01:35:59;15.47;;;12.40;;
13102;SDS011;52970;46.752;17.108;2022-11-25T01:38:24;16.13;;;11.63;;
13102;SDS011;52970;46.752;17.108;2022-11-25T01:40:49;13.07;;;11.10;;
13102;SDS011;52970;46.752;17.108;2022-11-25T01:43:14;11.73;;;10.43;;
13102;SDS011;52970;46.752;17.108;2022-11-25T01:45:40;12.93;;;10.43;;
13102;SDS011;52970;46.752;17.108;2022-11-25T01:48:51;12.98;;;11.50;;
13102;SDS011;52970;46.752;17.108;2022-11-25T01:50:50;13.37;;;10.60;;
13102;SDS011;52970;46.752;17.108;2022-11-25T01:53:17;13.93;;;12.13;;
13102;SDS011;52970;46.752;17.108;2022-11-25T01:55:44;12.97;;;10.60;;
13102;SDS011;52970;46.752;17.108;2022-11-25T01:58:13;12.17;;;10.73;;
13102;SDS011;52970;46.752;17.108;2022-11-25T02:00:39;14.17;;;11.20;;
13102;SDS011;52970;46.752;17.108;2022-11-25T02:03:05;12.67;;;11.00;;
13102;SDS011;52970;46.752;17.108;2022-11-25T02:08:14;11.97;;;10.43;;
13102;SDS011;52970;46.752;17.108;2022-11-25T02:10:40;12.47;;;10.47;;
13102;SDS011;52970;46.752;17.108;2022-11-25T02:13:06;12.70;;;10.03;;
13102;SDS011;52970;46.752;17.108;2022-11-25T02:15:32;11.00;;;9.80;;
13102;SDS011;52970;46.752;17.108;2022-11-25T02:17:58;13.57;;;10.90;;
13102;SDS011;52970;46.752;17.108;2022-11-25T02:20:23;11.93;;;10.70;;
13102;SDS011;52970;46.752;17.108;2022-11-25T02:27:53;12.43;;;10.57;;
13102;SDS011;52970;46.752;17.108;2022-11-25T02:30:18;13.13;;;11.17;;
13102;SDS011;52970;46.752;17.108;2022-11-25T02:32:44;13.10;;;11.10;;
13102;SDS011;52970;46.752;17.108;2022-11-25T02:35:21;13.70;;;11.13;;
13102;SDS011;52970;46.752;17.108;2022-11-25T02:37:48;11.90;;;10.63;;
13102;SDS011;52970;46.752;17.108;2022-11-25T02:40:13;14.87;;;11.37;;
13102;SDS011;52970;46.752;17.108;2022-11-25T02:42:39;12.43;;;11.13;;
13102;SDS011;52970;46.752;17.108;2022-11-25T02:45:05;12.97;;;11.47;;
13102;SDS011;52970;46.752;17.108;2022-11-25T02:47:33;14.93;;;11.50;;
13102;SDS011;52970;46.752;17.108;2022-11-25T02:49:59;14.17;;;11.70;;
13102;SDS011;52970;46.752;17.108;2022-11-25T02:52:24;13.33;;;11.60;;
13102;SDS011;52970;46.752;17.108;2022-11-25T02:54:49;15.00;;;12.57;;
13102;SDS011;52970;46.752;17.108;2022-11-25T02:57:14;13.60;;;11.87;;
13102;SDS011;52970;46.752;17.108;2022-11-25T02:59:39;16.30;;;12.17;;
13102;SDS011;52970;46.752;17.108;2022-11-25T03:02:04;14.47;;;11.87;;
13102;SDS011;52970;46.752;17.108;2022-11-25T03:04:30;14.40;;;12.80;;
13102;SDS011;52970;46.752;17.108;2022-11-25T03:06:55;14.67;;;12.37;;
13102;SDS011;52970;46.752;17.108;2022-11-25T03:09:20;12.57;;;11.20;;
13102;SDS011;52970;46.752;17.108;2022-11-25T03:11:45;14.43;;;11.27;;
13102;SDS011;52970;46.752;17.108;2022-11-25T03:14:29;12.17;;;10.87;;
13102;SDS011;52970;46.752;17.108;2022-11-25T03:16:55;13.33;;;11.93;;
13102;SDS011;52970;46.752;17.108;2022-11-25T03:19:20;13.63;;;10.53;;
13102;SDS011;52970;46.752;17.108;2022-11-25T03:21:45;15.37;;;12.70;;
13102;SDS011;52970;46.752;17.108;2022-11-25T03:24:10;14.60;;;12.07;;
13102;SDS011;52970;46.752;17.108;2022-11-25T03:26:35;15.57;;;12.13;;
13102;SDS011;52970;46.752;17.108;2022-11-25T03:29:01;14.53;;;12.00;;
13102;SDS011;52970;46.752;17.108;2022-11-25T03:31:26;13.80;;;12.30;;
13102;SDS011;52970;46.752;17.108;2022-11-25T03:33:51;13.20;;;11.80;;
13102;SDS011;52970;46.752;17.108;2022-11-25T03:36:17;14.40;;;12.03;;
13102;SDS011;52970;46.752;17.108;2022-11-25T03:38:44;12.17;;;10.87;;
13102;SDS011;52970;46.752;17.108;2022-11-25T03:41:09;14.07;;;12.07;;
13102;SDS011;52970;46.752;17.108;2022-11-25T03:43:35;14.63;;;11.97;;
13102;SDS011;52970;46.752;17.108;2022-11-25T03:46:00;13.13;;;11.73;;
13102;SDS011;52970;46.752;17.108;2022-11-25T03:48:25;14.93;;;11.43;;
13102;SDS011;52970;46.752;17.108;2022-11-25T03:50:51;12.63;;;11.33;;
13102;SDS011;52970;46.752;17.108;2022-11-25T03:53:16;15.13;;;11.70;;
13102;SDS011;52970;46.752;17.108;2022-11-25T03:55:41;17.87;;;11.63;;
13102;SDS011;52970;46.752;17.108;2022-11-25T03:58:06;14.10;;;11.13;;
13102;SDS011;52970;46.752;17.108;2022-11-25T04:00:32;14.50;;;11.90;;
13102;SDS011;52970;46.752;17.108;2022-11-25T04:02:58;13.13;;;11.57;;
13102;SDS011;52970;46.752;17.108;2022-11-25T04:05:23;13.73;;;10.93;;
13102;SDS011;52970;46.752;17.108;2022-11-25T04:07:48;14.03;;;11.47;;
13102;SDS011;52970;46.752;17.108;2022-11-25T04:10:13;13.77;;;11.90;;
13102;SDS011;52970;46.752;17.108;2022-11-25T04:12:39;19.00;;;12.20;;
13102;SDS011;52970;46.752;17.108;2022-11-25T04:15:13;26.53;;;13.07;;
13102;SDS011;52970;46.752;17.108;2022-11-25T04:17:39;12.83;;;11.43;;
13102;SDS011;52970;46.752;17.108;2022-11-25T04:20:04;15.63;;;12.93;;
13102;SDS011;52970;46.752;17.108;2022-11-25T04:22:30;13.57;;;11.33;;
13102;SDS011;52970;46.752;17.108;2022-11-25T04:24:55;16.17;;;12.47;;
13102;SDS011;52970;46.752;17.108;2022-11-25T04:27:20;15.70;;;12.53;;
13102;SDS011;52970;46.752;17.108;2022-11-25T04:29:45;15.57;;;12.60;;
13102;SDS011;52970;46.752;17.108;2022-11-25T04:32:10;16.20;;;12.40;;
13102;SDS011;52970;46.752;17.108;2022-11-25T04:34:37;16.97;;;13.53;;
13102;SDS011;52970;46.752;17.108;2022-11-25T04:37:02;41.80;;;13.67;;
13102;SDS011;52970;46.752;17.108;2022-11-25T04:39:27;15.73;;;12.30;;
13102;SDS011;52970;46.752;17.108;2022-11-25T04:41:52;15.50;;;11.50;;
13102;SDS011;52970;46.752;17.108;2022-11-25T04:44:38;12.10;;;10.70;;
13102;SDS011;52970;46.752;17.108;2022-11-25T04:47:03;12.70;;;10.80;;
13102;SDS011;52970;46.752;17.108;2022-11-25T04:49:28;13.97;;;10.27;;
13102;SDS011;52970;46.752;17.108;2022-11-25T04:51:53;15.17;;;12.20;;
13102;SDS011;52970;46.752;17.108;2022-11-25T04:54:18;12.47;;;11.10;;
13102;SDS011;52970;46.752;17.108;2022-11-25T04:56:44;23.17;;;19.03;;
13102;SDS011;52970;46.752;17.108;2022-11-25T04:59:09;14.03;;;12.57;;
13102;SDS011;52970;46.752;17.108;2022-11-25T05:01:53;11.47;;;10.33;;
13102;SDS011;52970;46.752;17.108;2022-11-25T05:04:18;12.13;;;10.83;;
13102;SDS011;52970;46.752;17.108;2022-11-25T05:06:43;13.17;;;11.83;;
13102;SDS011;52970;46.752;17.108;2022-11-25T05:09:09;13.37;;;11.97;;
13102;SDS011;52970;46.752;17.108;2022-11-25T05:11:35;13.23;;;11.80;;
13102;SDS011;52970;46.752;17.108;2022-11-25T05:14:00;12.13;;;10.83;;
13102;SDS011;52970;46.752;17.108;2022-11-25T05:16:25;12.57;;;11.13;;
13102;SDS011;52970;46.752;17.108;2022-11-25T05:18:51;16.20;;;13.47;;
13102;SDS011;52970;46.752;17.108;2022-11-25T05:21:16;16.17;;;12.27;;
13102;SDS011;52970;46.752;17.108;2022-11-25T05:23:41;15.50;;;11.80;;
13102;SDS011;52970;46.752;17.108;2022-11-25T05:26:06;14.50;;;12.37;;
13102;SDS011;52970;46.752;17.108;2022-11-25T05:28:32;13.90;;;12.50;;
13102;SDS011;52970;46.752;17.108;2022-11-25T05:30:57;13.53;;;11.70;;
13102;SDS011;52970;46.752;17.108;2022-11-25T05:33:22;14.80;;;12.33;;
13102;SDS011;52970;46.752;17.108;2022-11-25T05:35:58;14.70;;;13.13;;
13102;SDS011;52970;46.752;17.108;2022-11-25T05:38:23;14.73;;;12.47;;
13102;SDS011;52970;46.752;17.108;2022-11-25T05:40:49;13.53;;;11.73;;
13102;SDS011;52970;46.752;17.108;2022-11-25T05:43:15;13.87;;;12.33;;
13102;SDS011;52970;46.752;17.108;2022-11-25T05:45:40;12.80;;;11.33;;
13102;SDS011;52970;46.752;17.108;2022-11-25T05:48:06;13.03;;;11.73;;
13102;SDS011;52970;46.752;17.108;2022-11-25T05:50:31;13.57;;;11.70;;
13102;SDS011;52970;46.752;17.108;2022-11-25T05:52:56;12.97;;;11.33;;
13102;SDS011;52970;46.752;17.108;2022-11-25T05:55:21;15.17;;;12.30;;
13102;SDS011;52970;46.752;17.108;2022-11-25T05:57:46;17.30;;;13.47;;
13102;SDS011;52970;46.752;17.108;2022-11-25T06:00:12;17.60;;;14.07;;
13102;SDS011;52970;46.752;17.108;2022-11-25T06:02:37;19.50;;;15.87;;
13102;SDS011;52970;46.752;17.108;2022-11-25T06:05:02;15.37;;;13.77;;
13102;SDS011;52970;46.752;17.108;2022-11-25T06:07:28;15.83;;;14.03;;
13102;SDS011;52970;46.752;17.108;2022-11-25T06:09:53;16.60;;;14.90;;
13102;SDS011;52970;46.752;17.108;2022-11-25T06:12:19;17.20;;;14.87;;
13102;SDS011;52970;46.752;17.108;2022-11-25T06:14:45;14.57;;;12.93;;
13102;SDS011;52970;46.752;17.108;2022-11-25T06:17:10;12.63;;;11.30;;
13102;SDS011;52970;46.752;17.108;2022-11-25T06:19:35;13.57;;;12.20;;
13102;SDS011;52970;46.752;17.108;2022-11-25T06:22:00;14.07;;;11.17;;
13102;SDS011;52970;46.752;17.108;2022-11-25T06:24:25;12.83;;;11.40;;
13102;SDS011;52970;46.752;17.108;2022-11-25T06:26:51;12.63;;;11.33;;
13102;SDS011;52970;46.752;17.108;2022-11-25T06:29:16;12.30;;;11.10;;
13102;SDS011;52970;46.752;17.108;2022-11-25T06:31:41;12.27;;;10.83;;
13102;SDS011;52970;46.752;17.108;2022-11-25T06:34:06;13.37;;;11.97;;
13102;SDS011;52970;46.752;17.108;2022-11-25T06:36:33;12.20;;;11.00;;
13102;SDS011;52970;46.752;17.108;2022-11-25T06:38:58;12.23;;;10.90;;
13102;SDS011;52970;46.752;17.108;2022-11-25T06:41:24;11.10;;;10.00;;
13102;SDS011;52970;46.752;17.108;2022-11-25T06:43:49;11.63;;;10.43;;
13102;SDS011;52970;46.752;17.108;2022-11-25T06:46:15;11.33;;;10.07;;
13102;SDS011;52970;46.752;17.108;2022-11-25T06:48:41;10.87;;;9.77;;
13102;SDS011;52970;46.752;17.108;2022-11-25T06:51:07;10.27;;;9.17;;
13102;SDS011;52970;46.752;17.108;2022-11-25T06:53:34;12.33;;;9.77;;
13102;SDS011;52970;46.752;17.108;2022-11-25T06:56:03;9.63;;;8.73;;
13102;SDS011;52970;46.752;17.108;2022-11-25T06:58:28;9.73;;;8.77;;
13102;SDS011;52970;46.752;17.108;2022-11-25T07:01:07;9.87;;;8.93;;
13102;SDS011;52970;46.752;17.108;2022-11-25T07:03:32;10.20;;;9.20;;
13102;SDS011;52970;46.752;17.108;2022-11-25T07:05:58;9.50;;;8.60;;
13102;SDS011;52970;46.752;17.108;2022-11-25T07:08:24;11.43;;;10.23;;
13102;SDS011;52970;46.752;17.108;2022-11-25T07:10:49;12.97;;;9.37;;
13102;SDS011;52970;46.752;17.108;2022-11-25T07:13:15;10.93;;;9.50;;
13102;SDS011;52970;46.752;17.108;2022-11-25T07:15:40;14.87;;;10.43;;
13102;SDS011;52970;46.752;17.108;2022-11-25T07:18:05;15.47;;;10.27;;
13102;SDS011;52970;46.752;17.108;2022-11-25T07:20:30;13.67;;;11.23;;
13102;SDS011;52970;46.752;17.108;2022-11-25T07:22:56;14.03;;;11.10;;
13102;SDS011;52970;46.752;17.108;2022-11-25T07:25:22;12.67;;;11.37;;
13102;SDS011;52970;46.752;17.108;2022-11-25T07:27:47;12.07;;;10.87;;
13102;SDS011;52970;46.752;17.108;2022-11-25T07:30:12;10.83;;;9.73;;
13102;SDS011;52970;46.752;17.108;2022-11-25T07:32:37;10.50;;;9.40;;
13102;SDS011;52970;46.752;17.108;2022-11-25T07:35:03;14.47;;;11.93;;
13102;SDS011;52970;46.752;17.108;2022-11-25T07:37:28;12.70;;;11.40;;
13102;SDS011;52970;46.752;17.108;2022-11-25T07:39:53;11.17;;;10.07;;
13102;SDS011;52970;46.752;17.108;2022-11-25T07:42:19;12.67;;;11.37;;
13102;SDS011;52970;46.752;17.108;2022-11-25T07:44:44;11.70;;;10.17;;
13102;SDS011;52970;46.752;17.108;2022-11-25T07:47:09;12.43;;;10.97;;
13102;SDS011;52970;46.752;17.108;2022-11-25T07:49:34;11.23;;;10.13;;
13102;SDS011;52970;46.752;17.108;2022-11-25T07:52:00;11.57;;;10.20;;
13102;SDS011;52970;46.752;17.108;2022-11-25T07:54:27;11.33;;;10.23;;
13102;SDS011;52970;46.752;17.108;2022-11-25T07:56:52;12.13;;;10.90;;
13102;SDS011;52970;46.752;17.108;2022-11-25T07:59:19;12.17;;;10.97;;
13102;SDS011;52970;46.752;17.108;2022-11-25T08:01:44;11.27;;;10.17;;
13102;SDS011;52970;46.752;17.108;2022-11-25T08:04:10;11.30;;;9.83;;
13102;SDS011;52970;46.752;17.108;2022-11-25T08:06:37;14.60;;;11.23;;
13102;SDS011;52970;46.752;17.108;2022-11-25T08:09:02;11.57;;;10.33;;
13102;SDS011;52970;46.752;17.108;2022-11-25T08:11:28;12.13;;;9.97;;
13102;SDS011;52970;46.752;17.108;2022-11-25T08:13:54;11.23;;;10.03;;
13102;SDS011;52970;46.752;17.108;2022-11-25T08:16:20;10.50;;;9.37;;
13102;SDS011;52970;46.752;17.108;2022-11-25T08:18:45;11.03;;;9.93;;
13102;SDS011;52970;46.752;17.108;2022-11-25T08:21:11;10.07;;;9.00;;
13102;SDS011;52970;46.752;17.108;2022-11-25T08:23:37;10.43;;;8.60;;
13102;SDS011;52970;46.752;17.108;2022-11-25T08:26:07;10.90;;;9.13;;
13102;SDS011;52970;46.752;17.108;2022-11-25T08:28:32;11.27;;;9.13;;
13102;SDS011;52970;46.752;17.108;2022-11-25T08:31:04;9.63;;;8.67;;
13102;SDS011;52970;46.752;17.108;2022-11-25T08:33:30;11.67;;;9.50;;
13102;SDS011;52970;46.752;17.108;2022-11-25T08:35:55;9.80;;;8.80;;
13102;SDS011;52970;46.752;17.108;2022-11-25T08:38:21;12.00;;;8.70;;
13102;SDS011;52970;46.752;17.108;2022-11-25T08:40:46;10.13;;;9.07;;
13102;SDS011;52970;46.752;17.108;2022-11-25T08:43:11;9.77;;;8.70;;
13102;SDS011;52970;46.752;17.108;2022-11-25T08:45:37;10.97;;;9.10;;
13102;SDS011;52970;46.752;17.108;2022-11-25T08:48:02;9.40;;;7.50;;
13102;SDS011;52970;46.752;17.108;2022-11-25T08:50:27;9.10;;;8.30;;
13102;SDS011;52970;46.752;17.108;2022-11-25T08:52:53;9.23;;;8.33;;
13102;SDS011;52970;46.752;17.108;2022-11-25T08:55:18;9.50;;;8.50;;
13102;SDS011;52970;46.752;17.108;2022-11-25T08:57:43;9.60;;;8.47;;
13102;SDS011;52970;46.752;17.108;2022-11-25T09:00:09;8.63;;;7.67;;
13102;SDS011;52970;46.752;17.108;2022-11-25T09:02:34;9.43;;;8.43;;
13102;SDS011;52970;46.752;17.108;2022-11-25T09:04:59;8.87;;;8.03;;
13102;SDS011;52970;46.752;17.108;2022-11-25T09:07:25;8.90;;;8.00;;
13102;SDS011;52970;46.752;17.108;2022-11-25T09:09:50;8.93;;;8.03;;
13102;SDS011;52970;46.752;17.108;2022-11-25T09:12:15;10.30;;;8.47;;
13102;SDS011;52970;46.752;17.108;2022-11-25T09:14:41;9.47;;;7.70;;
13102;SDS011;52970;46.752;17.108;2022-11-25T09:17:09;9.43;;;7.65;;
13102;SDS011;52970;46.752;17.108;2022-11-25T09:19:35;8.30;;;7.57;;
13102;SDS011;52970;46.752;17.108;2022-11-25T09:22:00;8.43;;;7.35;;
13102;SDS011;52970;46.752;17.108;2022-11-25T09:24:26;8.40;;;7.55;;
13102;SDS011;52970;46.752;17.108;2022-11-25T09:26:51;10.98;;;8.02;;
13102;SDS011;52970;46.752;17.108;2022-11-25T09:29:16;8.32;;;7.53;;
13102;SDS011;52970;46.752;17.108;2022-11-25T09:31:42;8.10;;;7.30;;
13102;SDS011;52970;46.752;17.108;2022-11-25T09:34:07;7.20;;;6.50;;
13102;SDS011;52970;46.752;17.108;2022-11-25T09:36:34;7.15;;;6.50;;
13102;SDS011;52970;46.752;17.108;2022-11-25T09:38:59;7.53;;;6.93;;
13102;SDS011;52970;46.752;17.108;2022-11-25T09:41:44;7.10;;;6.40;;
13102;SDS011;52970;46.752;17.108;2022-11-25T09:44:36;7.90;;;7.10;;
13102;SDS011;52970;46.752;17.108;2022-11-25T09:50:22;7.15;;;6.45;;
13102;SDS011;52970;46.752;17.108;2022-11-25T09:52:57;7.47;;;6.78;;
13102;SDS011;52970;46.752;17.108;2022-11-25T09:55:26;7.38;;;6.10;;
13102;SDS011;52970;46.752;17.108;2022-11-25T10:00:20;7.25;;;6.55;;
13102;SDS011;52970;46.752;17.108;2022-11-25T10:02:59;7.32;;;6.18;;
13102;SDS011;52970;46.752;17.108;2022-11-25T10:05:26;6.90;;;6.22;;
13102;SDS011;52970;46.752;17.108;2022-11-25T10:07:55;6.43;;;5.82;;
13102;SDS011;52970;46.752;17.108;2022-11-25T10:10:23;6.82;;;5.85;;
13102;SDS011;52970;46.752;17.108;2022-11-25T10:12:49;6.53;;;5.93;;
13102;SDS011;52970;46.752;17.108;2022-11-25T10:15:20;7.22;;;6.05;;
13102;SDS011;52970;46.752;17.108;2022-11-25T10:17:48;6.22;;;5.60;;
13102;SDS011;52970;46.752;17.108;2022-11-25T10:22:40;6.32;;;5.72;;
13102;SDS011;52970;46.752;17.108;2022-11-25T10:25:14;9.23;;;5.30;;
13102;SDS011;52970;46.752;17.108;2022-11-25T10:32:39;5.18;;;4.68;;
13102;SDS011;52970;46.752;17.108;2022-11-25T10:35:06;6.63;;;5.03;;
13102;SDS011;52970;46.752;17.108;2022-11-25T10:37:37;6.55;;;5.40;;
13102;SDS011;52970;46.752;17.108;2022-11-25T10:40:03;6.35;;;5.05;;
13102;SDS011;52970;46.752;17.108;2022-11-25T10:42:29;5.50;;;4.78;;
13102;SDS011;52970;46.752;17.108;2022-11-25T10:44:56;4.80;;;4.30;;
13102;SDS011;52970;46.752;17.108;2022-11-25T10:50:02;5.22;;;4.18;;
13102;SDS011;52970;46.752;17.108;2022-11-25T10:52:39;4.30;;;3.90;;
13102;SDS011;52970;46.752;17.108;2022-11-25T10:55:10;4.57;;;4.13;;
13102;SDS011;52970;46.752;17.108;2022-11-25T10:57:35;5.13;;;4.63;;
13102;SDS011;52970;46.752;17.108;2022-11-25T11:00:01;5.65;;;5.10;;
13102;SDS011;52970;46.752;17.108;2022-11-25T11:07:18;6.20;;;5.10;;
13102;SDS011;52970;46.752;17.108;2022-11-25T11:09:44;5.63;;;5.13;;
13102;SDS011;52970;46.752;17.108;2022-11-25T11:14:38;5.57;;;4.90;;
13102;SDS011;52970;46.752;17.108;2022-11-25T11:17:04;7.00;;;5.10;;
13102;SDS011;52970;46.752;17.108;2022-11-25T11:19:29;6.07;;;5.28;;
13102;SDS011;52970;46.752;17.108;2022-11-25T11:21:56;7.35;;;5.55;;
13102;SDS011;52970;46.752;17.108;2022-11-25T11:24:37;5.20;;;4.70;;
13102;SDS011;52970;46.752;17.108;2022-11-25T11:29:40;4.85;;;4.43;;
13102;SDS011;52970;46.752;17.108;2022-11-25T11:32:06;5.95;;;5.03;;
13102;SDS011;52970;46.752;17.108;2022-11-25T11:40:00;5.28;;;4.78;;
13102;SDS011;52970;46.752;17.108;2022-11-25T11:42:44;5.78;;;5.18;;
13102;SDS011;52970;46.752;17.108;2022-11-25T11:50:26;6.07;;;5.47;;
13102;SDS011;52970;46.752;17.108;2022-11-25T11:55:37;6.22;;;5.72;;
13102;SDS011;52970;46.752;17.108;2022-11-25T11:58:09;6.28;;;5.70;;
13102;SDS011;52970;46.752;17.108;2022-11-25T12:00:39;7.03;;;6.32;;
13102;SDS011;52970;46.752;17.108;2022-11-25T12:03:13;6.43;;;5.72;;
13102;SDS011;52970;46.752;17.108;2022-11-25T12:05:40;6.30;;;5.35;;
13102;SDS011;52970;46.752;17.108;2022-11-25T12:10:38;6.50;;;5.90;;
13102;SDS011;52970;46.752;17.108;2022-11-25T12:18:19;6.60;;;6.00;;
13102;SDS011;52970;46.752;17.108;2022-11-25T12:21:49;8.55;;;7.13;;
13102;SDS011;52970;46.752;17.108;2022-11-25T12:23:59;7.50;;;6.80;;
13102;SDS011;52970;46.752;17.108;2022-11-25T12:26:29;6.85;;;6.15;;
13102;SDS011;52970;46.752;17.108;2022-11-25T12:29:00;7.13;;;6.43;;
13102;SDS011;52970;46.752;17.108;2022-11-25T12:31:28;6.07;;;5.57;;
13102;SDS011;52970;46.752;17.108;2022-11-25T12:34:09;7.18;;;5.88;;
13102;SDS011;52970;46.752;17.108;2022-11-25T12:36:39;7.65;;;6.78;;
13102;SDS011;52970;46.752;17.108;2022-11-25T12:39:15;8.13;;;6.53;;
13102;SDS011;52970;46.752;17.108;2022-11-25T12:41:53;7.45;;;6.72;;
13102;SDS011;52970;46.752;17.108;2022-11-25T12:44:21;11.00;;;7.43;;
13102;SDS011;52970;46.752;17.108;2022-11-25T12:49:14;8.35;;;7.00;;
13102;SDS011;52970;46.752;17.108;2022-11-25T13:12:08;5.15;;;3.75;;
13102;SDS011;52970;46.752;17.108;2022-11-25T13:14:54;7.47;;;4.00;;
13102;SDS011;52970;46.752;17.108;2022-11-25T13:17:22;5.90;;;3.60;;
13102;SDS011;52970;46.752;17.108;2022-11-25T13:19:48;5.68;;;3.92;;
13102;SDS011;52970;46.752;17.108;2022-11-25T13:24:42;5.38;;;3.58;;
13102;SDS011;52970;46.752;17.108;2022-11-25T13:29:51;3.88;;;3.35;;
13102;SDS011;52970;46.752;17.108;2022-11-25T13:32:27;4.65;;;3.70;;
13102;SDS011;52970;46.752;17.108;2022-11-25T13:37:39;5.53;;;4.03;;
13102;SDS011;52970;46.752;17.108;2022-11-25T13:42:50;7.20;;;4.28;;
13102;SDS011;52970;46.752;17.108;2022-11-25T13:45:26;6.95;;;5.35;;
13102;SDS011;52970;46.752;17.108;2022-11-25T13:47:51;7.50;;;5.28;;
13102;SDS011;52970;46.752;17.108;2022-11-25T13:50:21;33.25;;;15.98;;
13102;SDS011;52970;46.752;17.108;2022-11-25T13:52:48;20.17;;;10.70;;
13102;SDS011;52970;46.752;17.108;2022-11-25T13:57:43;8.38;;;6.53;;
13102;SDS011;52970;46.752;17.108;2022-11-25T14:02:43;10.63;;;6.60;;
13102;SDS011;52970;46.752;17.108;2022-11-25T14:05:34;12.10;;;6.82;;
13102;SDS011;52970;46.752;17.108;2022-11-25T14:26:09;9.02;;;5.30;;
13102;SDS011;52970;46.752;17.108;2022-11-25T14:28:43;10.68;;;4.72;;
13102;SDS011;52970;46.752;17.108;2022-11-25T14:31:10;7.38;;;5.07;;
13102;SDS011;52970;46.752;17.108;2022-11-25T14:33:37;6.30;;;4.57;;
13102;SDS011;52970;46.752;17.108;2022-11-25T14:36:08;9.43;;;5.05;;
13102;SDS011;52970;46.752;17.108;2022-11-25T14:38:39;8.93;;;4.93;;
13102;SDS011;52970;46.752;17.108;2022-11-25T14:41:09;9.98;;;5.03;;
13102;SDS011;52970;46.752;17.108;2022-11-25T14:43:38;7.03;;;5.32;;
13102;SDS011;52970;46.752;17.108;2022-11-25T14:46:10;7.35;;;4.78;;
13102;SDS011;52970;46.752;17.108;2022-11-25T14:48:36;8.02;;;4.75;;
13102;SDS011;52970;46.752;17.108;2022-11-25T14:51:06;6.85;;;4.75;;
13102;SDS011;52970;46.752;17.108;2022-11-25T14:53:36;7.45;;;5.15;;
13102;SDS011;52970;46.752;17.108;2022-11-25T14:56:02;9.32;;;4.88;;
13102;SDS011;52970;46.752;17.108;2022-11-25T14:58:28;10.80;;;4.95;;
13102;SDS011;52970;46.752;17.108;2022-11-25T15:03:22;8.52;;;5.43;;
13102;SDS011;52970;46.752;17.108;2022-11-25T15:06:03;7.35;;;4.80;;
13102;SDS011;52970;46.752;17.108;2022-11-25T15:08:36;6.75;;;4.75;;
13102;SDS011;52970;46.752;17.108;2022-11-25T15:11:02;8.15;;;5.20;;
13102;SDS011;52970;46.752;17.108;2022-11-25T15:15:55;6.97;;;4.57;;
13102;SDS011;52970;46.752;17.108;2022-11-25T15:18:24;6.75;;;4.85;;
13102;SDS011;52970;46.752;17.108;2022-11-25T15:20:52;7.45;;;4.72;;
13102;SDS011;52970;46.752;17.108;2022-11-25T15:23:22;7.20;;;4.72;;
13102;SDS011;52970;46.752;17.108;2022-11-25T15:25:51;8.35;;;4.65;;
13102;SDS011;52970;46.752;17.108;2022-11-25T15:28:16;7.18;;;4.78;;
13102;SDS011;52970;46.752;17.108;2022-11-25T15:30:43;6.82;;;5.00;;
13102;SDS011;52970;46.752;17.108;2022-11-25T15:33:18;7.57;;;5.38;;
13102;SDS011;52970;46.752;17.108;2022-11-25T15:35:43;6.05;;;4.60;;
13102;SDS011;52970;46.752;17.108;2022-11-25T15:40:53;7.18;;;5.32;;
13102;SDS011;52970;46.752;17.108;2022-11-25T15:43:20;6.97;;;5.15;;
13102;SDS011;52970;46.752;17.108;2022-11-25T15:45:47;7.70;;;4.72;;
13102;SDS011;52970;46.752;17.108;2022-11-25T15:51:01;6.03;;;4.80;;
13102;SDS011;52970;46.752;17.108;2022-11-25T15:53:27;7.78;;;5.15;;
13102;SDS011;52970;46.752;17.108;2022-11-25T15:55:52;10.13;;;5.20;;
13102;SDS011;52970;46.752;17.108;2022-11-25T15:58:18;6.93;;;4.90;;
13102;SDS011;52970;46.752;17.108;2022-11-25T16:01:01;8.68;;;5.22;;
13102;SDS011;52970;46.752;17.108;2022-11-25T16:03:26;9.93;;;5.80;;
13102;SDS011;52970;46.752;17.108;2022-11-25T16:05:53;8.35;;;4.80;;
13102;SDS011;52970;46.752;17.108;2022-11-25T16:08:34;7.50;;;5.93;;
13102;SDS011;52970;46.752;17.108;2022-11-25T16:11:10;8.02;;;5.53;;
13102;SDS011;52970;46.752;17.108;2022-11-25T16:13:36;8.35;;;5.30;;
13102;SDS011;52970;46.752;17.108;2022-11-25T16:18:31;7.30;;;5.75;;
13102;SDS011;52970;46.752;17.108;2022-11-25T16:20:58;8.25;;;5.72;;
13102;SDS011;52970;46.752;17.108;2022-11-25T16:23:24;9.38;;;5.95;;